Terminal Aerodrome Forecast
Issued by NWS Charleston, WV

Current Version | Previous Version | Graphics & Text | Print | Product List | Glossary On
Versions: 1 2 3 4 5 6 7 8 9 10 11 12 13 14 15 16 17 18 19 20 21 22 23 24 25 26 27 28 29 30
000
FTUS41 KRLX 051510 AAB
TAFPKB
TAF AMD
KPKB 051510Z 0515/0612 09003KT P6SM SCT150
     FM052100 10004KT 3SM SHRA OVC060
     FM060300 00000KT 6SM BR BKN060
     FM060900 00000KT 3SM BR BKN060=

USA.gov is the U.S. government's official web portal to all federal, state and local government web resources and services.